sensor_id;sensor_type;location;lat;lon;timestamp;P1;durP1;ratioP1;P2;durP2;ratioP2
23338;SDS011;11841;49.368;20.962;2023-04-24T00:02:26;6.90;;;5.25;;
23338;SDS011;11841;49.368;20.962;2023-04-24T00:05:15;9.85;;;6.47;;
23338;SDS011;11841;49.368;20.962;2023-04-24T00:08:02;7.55;;;4.97;;
23338;SDS011;11841;49.368;20.962;2023-04-24T00:10:47;9.27;;;5.85;;
23338;SDS011;11841;49.368;20.962;2023-04-24T00:13:32;9.30;;;5.72;;
23338;SDS011;11841;49.368;20.962;2023-04-24T00:16:18;7.47;;;5.50;;
23338;SDS011;11841;49.368;20.962;2023-04-24T00:19:03;10.48;;;5.22;;
23338;SDS011;11841;49.368;20.962;2023-04-24T00:21:51;9.98;;;5.57;;
23338;SDS011;11841;49.368;20.962;2023-04-24T00:24:36;12.10;;;5.90;;
23338;SDS011;11841;49.368;20.962;2023-04-24T00:27:21;10.00;;;5.93;;
23338;SDS011;11841;49.368;20.962;2023-04-24T00:30:07;10.88;;;5.78;;
23338;SDS011;11841;49.368;20.962;2023-04-24T00:32:52;8.35;;;5.43;;
23338;SDS011;11841;49.368;20.962;2023-04-24T00:35:38;7.68;;;4.78;;
23338;SDS011;11841;49.368;20.962;2023-04-24T00:38:23;8.95;;;5.47;;
23338;SDS011;11841;49.368;20.962;2023-04-24T00:41:08;9.50;;;6.13;;
23338;SDS011;11841;49.368;20.962;2023-04-24T00:43:54;9.57;;;5.28;;
23338;SDS011;11841;49.368;20.962;2023-04-24T00:46:39;9.43;;;4.45;;
23338;SDS011;11841;49.368;20.962;2023-04-24T00:49:25;7.28;;;5.30;;
23338;SDS011;11841;49.368;20.962;2023-04-24T00:52:11;11.25;;;5.60;;
23338;SDS011;11841;49.368;20.962;2023-04-24T00:54:57;13.88;;;6.40;;
23338;SDS011;11841;49.368;20.962;2023-04-24T00:57:42;10.68;;;5.82;;
23338;SDS011;11841;49.368;20.962;2023-04-24T01:00:28;8.60;;;5.68;;
23338;SDS011;11841;49.368;20.962;2023-04-24T01:03:14;6.72;;;5.18;;
23338;SDS011;11841;49.368;20.962;2023-04-24T01:06:00;4.85;;;4.32;;
23338;SDS011;11841;49.368;20.962;2023-04-24T01:08:46;9.70;;;5.72;;
23338;SDS011;11841;49.368;20.962;2023-04-24T01:11:32;7.90;;;5.30;;
23338;SDS011;11841;49.368;20.962;2023-04-24T01:14:18;9.30;;;6.45;;
23338;SDS011;11841;49.368;20.962;2023-04-24T01:17:03;13.85;;;5.72;;
23338;SDS011;11841;49.368;20.962;2023-04-24T01:19:49;9.32;;;5.55;;
23338;SDS011;11841;49.368;20.962;2023-04-24T01:22:34;7.85;;;5.45;;
23338;SDS011;11841;49.368;20.962;2023-04-24T01:25:19;10.52;;;6.05;;
23338;SDS011;11841;49.368;20.962;2023-04-24T01:28:05;7.68;;;5.15;;
23338;SDS011;11841;49.368;20.962;2023-04-24T01:30:50;7.50;;;5.13;;
23338;SDS011;11841;49.368;20.962;2023-04-24T01:33:35;7.13;;;5.22;;
23338;SDS011;11841;49.368;20.962;2023-04-24T01:36:21;11.35;;;5.40;;
23338;SDS011;11841;49.368;20.962;2023-04-24T01:39:08;11.52;;;4.93;;
23338;SDS011;11841;49.368;20.962;2023-04-24T01:41:54;7.07;;;4.53;;
23338;SDS011;11841;49.368;20.962;2023-04-24T01:44:41;11.45;;;5.20;;
23338;SDS011;11841;49.368;20.962;2023-04-24T01:47:27;10.73;;;5.20;;
23338;SDS011;11841;49.368;20.962;2023-04-24T01:50:13;13.88;;;5.40;;
23338;SDS011;11841;49.368;20.962;2023-04-24T01:52:58;8.43;;;4.93;;
23338;SDS011;11841;49.368;20.962;2023-04-24T01:55:43;7.68;;;5.30;;
23338;SDS011;11841;49.368;20.962;2023-04-24T01:58:28;8.13;;;5.10;;
23338;SDS011;11841;49.368;20.962;2023-04-24T02:01:20;9.88;;;5.18;;
23338;SDS011;11841;49.368;20.962;2023-04-24T02:04:06;8.60;;;5.72;;
23338;SDS011;11841;49.368;20.962;2023-04-24T02:06:52;5.72;;;4.47;;
23338;SDS011;11841;49.368;20.962;2023-04-24T02:09:38;9.38;;;4.75;;
23338;SDS011;11841;49.368;20.962;2023-04-24T02:12:23;11.07;;;4.70;;
23338;SDS011;11841;49.368;20.962;2023-04-24T02:15:09;7.00;;;4.75;;
23338;SDS011;11841;49.368;20.962;2023-04-24T02:17:55;10.63;;;5.43;;
23338;SDS011;11841;49.368;20.962;2023-04-24T02:20:40;7.43;;;5.00;;
23338;SDS011;11841;49.368;20.962;2023-04-24T02:23:27;7.47;;;4.85;;
23338;SDS011;11841;49.368;20.962;2023-04-24T02:26:12;8.93;;;4.57;;
23338;SDS011;11841;49.368;20.962;2023-04-24T02:28:57;7.30;;;5.13;;
23338;SDS011;11841;49.368;20.962;2023-04-24T02:31:43;8.35;;;4.75;;
23338;SDS011;11841;49.368;20.962;2023-04-24T02:34:28;20.27;;;4.88;;
23338;SDS011;11841;49.368;20.962;2023-04-24T02:37:13;7.93;;;4.65;;
23338;SDS011;11841;49.368;20.962;2023-04-24T02:39:59;7.60;;;5.00;;
23338;SDS011;11841;49.368;20.962;2023-04-24T02:42:44;7.97;;;5.03;;
23338;SDS011;11841;49.368;20.962;2023-04-24T02:45:30;8.00;;;4.45;;
23338;SDS011;11841;49.368;20.962;2023-04-24T02:48:15;8.40;;;4.88;;
23338;SDS011;11841;49.368;20.962;2023-04-24T02:51:00;7.45;;;4.50;;
23338;SDS011;11841;49.368;20.962;2023-04-24T02:53:45;7.15;;;5.15;;
23338;SDS011;11841;49.368;20.962;2023-04-24T02:56:31;9.48;;;4.80;;
23338;SDS011;11841;49.368;20.962;2023-04-24T02:59:16;8.68;;;4.97;;
23338;SDS011;11841;49.368;20.962;2023-04-24T03:02:01;6.07;;;4.13;;
23338;SDS011;11841;49.368;20.962;2023-04-24T03:04:47;9.00;;;5.93;;
23338;SDS011;11841;49.368;20.962;2023-04-24T03:07:35;6.25;;;4.68;;
23338;SDS011;11841;49.368;20.962;2023-04-24T03:10:20;6.32;;;4.60;;
23338;SDS011;11841;49.368;20.962;2023-04-24T03:13:07;12.30;;;5.55;;
23338;SDS011;11841;49.368;20.962;2023-04-24T03:15:53;10.45;;;5.20;;
23338;SDS011;11841;49.368;20.962;2023-04-24T03:18:39;10.50;;;5.32;;
23338;SDS011;11841;49.368;20.962;2023-04-24T03:21:24;8.15;;;4.93;;
23338;SDS011;11841;49.368;20.962;2023-04-24T03:24:09;7.90;;;4.57;;
23338;SDS011;11841;49.368;20.962;2023-04-24T03:26:55;10.23;;;5.55;;
23338;SDS011;11841;49.368;20.962;2023-04-24T03:29:42;7.63;;;5.18;;
23338;SDS011;11841;49.368;20.962;2023-04-24T03:32:27;8.15;;;5.00;;
23338;SDS011;11841;49.368;20.962;2023-04-24T03:35:13;7.88;;;4.88;;
23338;SDS011;11841;49.368;20.962;2023-04-24T03:37:58;7.10;;;5.00;;
23338;SDS011;11841;49.368;20.962;2023-04-24T03:40:44;7.80;;;4.85;;
23338;SDS011;11841;49.368;20.962;2023-04-24T03:43:29;9.68;;;5.15;;
23338;SDS011;11841;49.368;20.962;2023-04-24T03:46:14;10.40;;;5.03;;
23338;SDS011;11841;49.368;20.962;2023-04-24T03:49:00;5.60;;;4.32;;
23338;SDS011;11841;49.368;20.962;2023-04-24T03:51:45;7.10;;;4.55;;
23338;SDS011;11841;49.368;20.962;2023-04-24T03:54:31;10.85;;;5.22;;
23338;SDS011;11841;49.368;20.962;2023-04-24T03:57:16;14.32;;;5.15;;
23338;SDS011;11841;49.368;20.962;2023-04-24T04:00:01;10.95;;;4.80;;
23338;SDS011;11841;49.368;20.962;2023-04-24T04:02:49;10.32;;;5.32;;
23338;SDS011;11841;49.368;20.962;2023-04-24T04:05:34;8.45;;;5.70;;
23338;SDS011;11841;49.368;20.962;2023-04-24T04:08:19;11.35;;;5.28;;
23338;SDS011;11841;49.368;20.962;2023-04-24T04:11:05;10.90;;;5.25;;
23338;SDS011;11841;49.368;20.962;2023-04-24T04:13:50;10.85;;;5.80;;
23338;SDS011;11841;49.368;20.962;2023-04-24T04:16:36;9.20;;;5.55;;
23338;SDS011;11841;49.368;20.962;2023-04-24T04:19:21;8.30;;;5.22;;
23338;SDS011;11841;49.368;20.962;2023-04-24T04:22:06;7.32;;;4.85;;
23338;SDS011;11841;49.368;20.962;2023-04-24T04:24:52;9.23;;;4.60;;
23338;SDS011;11841;49.368;20.962;2023-04-24T04:27:37;7.57;;;5.55;;
23338;SDS011;11841;49.368;20.962;2023-04-24T04:30:23;4.85;;;4.18;;
23338;SDS011;11841;49.368;20.962;2023-04-24T04:33:08;5.32;;;4.15;;
23338;SDS011;11841;49.368;20.962;2023-04-24T04:35:55;7.60;;;5.18;;
23338;SDS011;11841;49.368;20.962;2023-04-24T04:38:41;7.65;;;5.22;;
23338;SDS011;11841;49.368;20.962;2023-04-24T04:41:27;9.15;;;5.55;;
23338;SDS011;11841;49.368;20.962;2023-04-24T04:44:13;6.18;;;4.65;;
23338;SDS011;11841;49.368;20.962;2023-04-24T04:46:58;7.50;;;4.93;;
23338;SDS011;11841;49.368;20.962;2023-04-24T04:49:45;10.07;;;4.82;;
23338;SDS011;11841;49.368;20.962;2023-04-24T04:52:30;6.38;;;4.50;;
23338;SDS011;11841;49.368;20.962;2023-04-24T04:55:16;10.85;;;5.55;;
23338;SDS011;11841;49.368;20.962;2023-04-24T04:58:01;17.08;;;6.00;;
23338;SDS011;11841;49.368;20.962;2023-04-24T05:00:47;8.82;;;5.75;;
23338;SDS011;11841;49.368;20.962;2023-04-24T05:03:33;8.60;;;5.95;;
23338;SDS011;11841;49.368;20.962;2023-04-24T05:06:19;10.00;;;6.05;;
23338;SDS011;11841;49.368;20.962;2023-04-24T05:09:07;175.80;;;16.67;;
23338;SDS011;11841;49.368;20.962;2023-04-24T05:11:52;50.58;;;9.68;;
23338;SDS011;11841;49.368;20.962;2023-04-24T05:14:38;25.65;;;7.20;;
23338;SDS011;11841;49.368;20.962;2023-04-24T05:17:23;11.43;;;6.45;;
23338;SDS011;11841;49.368;20.962;2023-04-24T05:20:08;11.27;;;7.85;;
23338;SDS011;11841;49.368;20.962;2023-04-24T05:22:54;17.15;;;7.85;;
23338;SDS011;11841;49.368;20.962;2023-04-24T05:25:40;18.38;;;8.73;;
23338;SDS011;11841;49.368;20.962;2023-04-24T05:28:26;9.13;;;7.03;;
23338;SDS011;11841;49.368;20.962;2023-04-24T05:31:13;15.63;;;7.00;;
23338;SDS011;11841;49.368;20.962;2023-04-24T05:33:58;10.70;;;6.82;;
23338;SDS011;11841;49.368;20.962;2023-04-24T05:36:43;17.90;;;7.45;;
23338;SDS011;11841;49.368;20.962;2023-04-24T05:39:29;13.82;;;7.20;;
23338;SDS011;11841;49.368;20.962;2023-04-24T05:42:14;13.93;;;7.53;;
23338;SDS011;11841;49.368;20.962;2023-04-24T05:45:00;13.70;;;7.97;;
23338;SDS011;11841;49.368;20.962;2023-04-24T05:47:45;13.55;;;7.43;;
23338;SDS011;11841;49.368;20.962;2023-04-24T05:50:30;11.77;;;7.55;;
23338;SDS011;11841;49.368;20.962;2023-04-24T05:53:17;11.15;;;7.32;;
23338;SDS011;11841;49.368;20.962;2023-04-24T05:56:02;15.65;;;7.57;;
23338;SDS011;11841;49.368;20.962;2023-04-24T05:58:47;12.70;;;7.70;;
23338;SDS011;11841;49.368;20.962;2023-04-24T06:01:33;10.50;;;7.13;;
23338;SDS011;11841;49.368;20.962;2023-04-24T06:04:19;9.52;;;6.18;;
23338;SDS011;11841;49.368;20.962;2023-04-24T06:07:04;13.00;;;7.53;;
23338;SDS011;11841;49.368;20.962;2023-04-24T06:09:50;15.05;;;6.55;;
23338;SDS011;11841;49.368;20.962;2023-04-24T06:12:35;15.60;;;7.70;;
23338;SDS011;11841;49.368;20.962;2023-04-24T06:15:21;11.93;;;6.70;;
23338;SDS011;11841;49.368;20.962;2023-04-24T06:18:06;12.43;;;6.03;;
23338;SDS011;11841;49.368;20.962;2023-04-24T06:20:52;10.82;;;5.53;;
23338;SDS011;11841;49.368;20.962;2023-04-24T06:23:38;8.93;;;6.55;;
23338;SDS011;11841;49.368;20.962;2023-04-24T06:26:23;10.48;;;5.60;;
23338;SDS011;11841;49.368;20.962;2023-04-24T06:29:10;12.32;;;7.10;;
23338;SDS011;11841;49.368;20.962;2023-04-24T06:31:55;9.88;;;5.18;;
23338;SDS011;11841;49.368;20.962;2023-04-24T06:34:40;10.88;;;6.07;;
23338;SDS011;11841;49.368;20.962;2023-04-24T06:37:27;10.30;;;5.47;;
23338;SDS011;11841;49.368;20.962;2023-04-24T06:40:12;9.27;;;5.20;;
23338;SDS011;11841;49.368;20.962;2023-04-24T06:42:57;7.80;;;5.10;;
23338;SDS011;11841;49.368;20.962;2023-04-24T06:45:44;9.30;;;5.22;;
23338;SDS011;11841;49.368;20.962;2023-04-24T06:48:30;7.75;;;5.05;;
23338;SDS011;11841;49.368;20.962;2023-04-24T06:51:15;11.07;;;5.65;;
23338;SDS011;11841;49.368;20.962;2023-04-24T06:54:02;7.65;;;5.22;;
23338;SDS011;11841;49.368;20.962;2023-04-24T06:56:48;7.68;;;5.57;;
23338;SDS011;11841;49.368;20.962;2023-04-24T06:59:34;8.30;;;5.82;;
23338;SDS011;11841;49.368;20.962;2023-04-24T07:02:19;11.63;;;5.50;;
23338;SDS011;11841;49.368;20.962;2023-04-24T07:05:05;13.63;;;5.90;;
23338;SDS011;11841;49.368;20.962;2023-04-24T07:07:51;10.68;;;5.70;;
23338;SDS011;11841;49.368;20.962;2023-04-24T07:10:37;8.25;;;5.72;;
23338;SDS011;11841;49.368;20.962;2023-04-24T07:13:22;8.95;;;5.38;;
23338;SDS011;11841;49.368;20.962;2023-04-24T07:16:08;10.57;;;6.13;;
23338;SDS011;11841;49.368;20.962;2023-04-24T07:18:54;13.57;;;5.88;;
23338;SDS011;11841;49.368;20.962;2023-04-24T07:21:39;9.55;;;5.57;;
23338;SDS011;11841;49.368;20.962;2023-04-24T07:24:25;7.28;;;4.70;;
23338;SDS011;11841;49.368;20.962;2023-04-24T07:27:11;9.35;;;5.93;;
23338;SDS011;11841;49.368;20.962;2023-04-24T07:29:56;8.82;;;6.22;;
23338;SDS011;11841;49.368;20.962;2023-04-24T07:32:42;8.10;;;5.30;;
23338;SDS011;11841;49.368;20.962;2023-04-24T07:35:27;11.48;;;5.85;;
23338;SDS011;11841;49.368;20.962;2023-04-24T07:38:12;10.48;;;5.53;;
23338;SDS011;11841;49.368;20.962;2023-04-24T07:40:57;8.82;;;5.90;;
23338;SDS011;11841;49.368;20.962;2023-04-24T07:43:43;10.90;;;6.13;;
23338;SDS011;11841;49.368;20.962;2023-04-24T07:46:29;9.48;;;5.93;;
23338;SDS011;11841;49.368;20.962;2023-04-24T07:49:15;12.02;;;5.43;;
23338;SDS011;11841;49.368;20.962;2023-04-24T07:52:03;12.77;;;4.90;;
23338;SDS011;11841;49.368;20.962;2023-04-24T07:54:49;27.65;;;6.78;;
23338;SDS011;11841;49.368;20.962;2023-04-24T07:57:35;10.38;;;5.47;;
23338;SDS011;11841;49.368;20.962;2023-04-24T08:00:21;9.65;;;5.90;;
23338;SDS011;11841;49.368;20.962;2023-04-24T08:03:06;8.90;;;5.30;;
23338;SDS011;11841;49.368;20.962;2023-04-24T08:05:52;8.50;;;5.80;;
23338;SDS011;11841;49.368;20.962;2023-04-24T08:08:37;10.07;;;5.63;;
23338;SDS011;11841;49.368;20.962;2023-04-24T08:11:23;7.68;;;4.78;;
23338;SDS011;11841;49.368;20.962;2023-04-24T08:14:08;14.63;;;6.38;;
23338;SDS011;11841;49.368;20.962;2023-04-24T08:16:54;10.65;;;6.05;;
23338;SDS011;11841;49.368;20.962;2023-04-24T08:19:44;9.55;;;5.80;;
23338;SDS011;11841;49.368;20.962;2023-04-24T08:22:33;10.05;;;5.65;;
23338;SDS011;11841;49.368;20.962;2023-04-24T08:25:18;9.52;;;5.55;;
23338;SDS011;11841;49.368;20.962;2023-04-24T08:28:05;14.35;;;6.15;;
23338;SDS011;11841;49.368;20.962;2023-04-24T08:30:51;9.55;;;5.57;;
23338;SDS011;11841;49.368;20.962;2023-04-24T08:33:39;10.30;;;5.70;;
23338;SDS011;11841;49.368;20.962;2023-04-24T08:36:25;11.40;;;5.30;;
23338;SDS011;11841;49.368;20.962;2023-04-24T08:39:23;7.57;;;5.47;;
23338;SDS011;11841;49.368;20.962;2023-04-24T08:42:08;14.70;;;6.13;;
23338;SDS011;11841;49.368;20.962;2023-04-24T08:44:56;13.02;;;5.20;;
23338;SDS011;11841;49.368;20.962;2023-04-24T08:47:42;10.30;;;6.15;;
23338;SDS011;11841;49.368;20.962;2023-04-24T08:50:28;11.25;;;5.20;;
23338;SDS011;11841;49.368;20.962;2023-04-24T08:53:14;8.82;;;5.00;;
23338;SDS011;11841;49.368;20.962;2023-04-24T08:56:00;8.75;;;5.32;;
23338;SDS011;11841;49.368;20.962;2023-04-24T08:58:47;6.72;;;4.47;;
23338;SDS011;11841;49.368;20.962;2023-04-24T09:01:33;6.20;;;5.20;;
23338;SDS011;11841;49.368;20.962;2023-04-24T09:04:19;8.63;;;5.60;;
23338;SDS011;11841;49.368;20.962;2023-04-24T09:07:07;7.65;;;5.18;;
23338;SDS011;11841;49.368;20.962;2023-04-24T09:09:54;7.13;;;4.97;;
23338;SDS011;11841;49.368;20.962;2023-04-24T09:12:39;7.47;;;5.65;;
23338;SDS011;11841;49.368;20.962;2023-04-24T09:15:25;12.35;;;4.88;;
23338;SDS011;11841;49.368;20.962;2023-04-24T09:18:11;12.15;;;6.60;;
23338;SDS011;11841;49.368;20.962;2023-04-24T09:21:00;10.70;;;6.72;;
23338;SDS011;11841;49.368;20.962;2023-04-24T09:23:47;13.93;;;5.75;;
23338;SDS011;11841;49.368;20.962;2023-04-24T09:26:42;7.03;;;4.95;;
23338;SDS011;11841;49.368;20.962;2023-04-24T09:29:28;12.13;;;4.90;;
23338;SDS011;11841;49.368;20.962;2023-04-24T09:32:20;6.72;;;4.72;;
23338;SDS011;11841;49.368;20.962;2023-04-24T09:35:11;6.38;;;4.57;;
23338;SDS011;11841;49.368;20.962;2023-04-24T09:37:58;4.93;;;4.45;;
23338;SDS011;11841;49.368;20.962;2023-04-24T09:40:43;8.68;;;5.18;;
23338;SDS011;11841;49.368;20.962;2023-04-24T09:43:28;6.35;;;4.65;;
23338;SDS011;11841;49.368;20.962;2023-04-24T09:46:14;10.75;;;4.95;;
23338;SDS011;11841;49.368;20.962;2023-04-24T09:52:04;7.03;;;4.25;;
23338;SDS011;11841;49.368;20.962;2023-04-24T09:54:54;8.45;;;4.95;;
23338;SDS011;11841;49.368;20.962;2023-04-24T10:00:39;9.10;;;4.85;;
23338;SDS011;11841;49.368;20.962;2023-04-24T10:03:25;6.82;;;4.18;;
23338;SDS011;11841;49.368;20.962;2023-04-24T10:06:12;7.40;;;5.07;;
23338;SDS011;11841;49.368;20.962;2023-04-24T10:08:57;7.32;;;4.70;;
23338;SDS011;11841;49.368;20.962;2023-04-24T10:11:44;10.48;;;5.00;;
23338;SDS011;11841;49.368;20.962;2023-04-24T10:14:30;7.47;;;4.70;;
23338;SDS011;11841;49.368;20.962;2023-04-24T10:17:16;13.30;;;5.28;;
23338;SDS011;11841;49.368;20.962;2023-04-24T10:20:02;6.53;;;5.22;;
23338;SDS011;11841;49.368;20.962;2023-04-24T10:22:47;11.55;;;5.57;;
23338;SDS011;11841;49.368;20.962;2023-04-24T10:25:35;11.38;;;4.65;;
23338;SDS011;11841;49.368;20.962;2023-04-24T10:28:23;6.93;;;4.95;;
23338;SDS011;11841;49.368;20.962;2023-04-24T10:31:09;9.82;;;5.15;;
23338;SDS011;11841;49.368;20.962;2023-04-24T10:33:56;11.98;;;5.25;;
23338;SDS011;11841;49.368;20.962;2023-04-24T10:36:44;11.30;;;5.22;;
23338;SDS011;11841;49.368;20.962;2023-04-24T10:39:32;9.40;;;5.13;;
23338;SDS011;11841;49.368;20.962;2023-04-24T10:42:18;11.95;;;4.85;;
23338;SDS011;11841;49.368;20.962;2023-04-24T10:45:04;8.00;;;5.32;;
23338;SDS011;11841;49.368;20.962;2023-04-24T10:47:51;8.32;;;5.20;;
23338;SDS011;11841;49.368;20.962;2023-04-24T10:50:51;16.52;;;5.93;;
23338;SDS011;11841;49.368;20.962;2023-04-24T10:53:37;16.10;;;5.22;;
23338;SDS011;11841;49.368;20.962;2023-04-24T10:56:23;17.90;;;5.95;;
23338;SDS011;11841;49.368;20.962;2023-04-24T10:59:08;12.02;;;5.00;;
23338;SDS011;11841;49.368;20.962;2023-04-24T11:01:54;8.63;;;4.75;;
23338;SDS011;11841;49.368;20.962;2023-04-24T11:04:40;10.40;;;5.90;;
23338;SDS011;11841;49.368;20.962;2023-04-24T11:07:27;11.70;;;5.32;;
23338;SDS011;11841;49.368;20.962;2023-04-24T11:10:24;11.27;;;6.32;;
23338;SDS011;11841;49.368;20.962;2023-04-24T11:13:13;13.32;;;4.60;;
23338;SDS011;11841;49.368;20.962;2023-04-24T11:19:24;14.07;;;5.38;;
23338;SDS011;11841;49.368;20.962;2023-04-24T11:22:14;8.07;;;5.65;;
23338;SDS011;11841;49.368;20.962;2023-04-24T11:25:02;11.40;;;5.57;;
23338;SDS011;11841;49.368;20.962;2023-04-24T11:27:49;5.88;;;4.50;;
23338;SDS011;11841;49.368;20.962;2023-04-24T11:30:35;9.10;;;4.97;;
23338;SDS011;11841;49.368;20.962;2023-04-24T11:33:25;10.02;;;5.82;;
23338;SDS011;11841;49.368;20.962;2023-04-24T11:36:10;10.77;;;5.85;;
23338;SDS011;11841;49.368;20.962;2023-04-24T11:38:56;9.07;;;5.32;;
23338;SDS011;11841;49.368;20.962;2023-04-24T11:41:42;9.35;;;5.30;;
23338;SDS011;11841;49.368;20.962;2023-04-24T11:44:27;16.88;;;6.53;;
23338;SDS011;11841;49.368;20.962;2023-04-24T11:47:13;7.93;;;5.30;;
23338;SDS011;11841;49.368;20.962;2023-04-24T11:49:59;13.50;;;6.07;;
23338;SDS011;11841;49.368;20.962;2023-04-24T11:52:47;13.93;;;5.68;;
23338;SDS011;11841;49.368;20.962;2023-04-24T11:55:33;12.20;;;5.20;;
23338;SDS011;11841;49.368;20.962;2023-04-24T11:58:20;9.73;;;5.05;;
23338;SDS011;11841;49.368;20.962;2023-04-24T12:01:06;11.68;;;5.20;;
23338;SDS011;11841;49.368;20.962;2023-04-24T12:03:58;6.65;;;4.80;;
23338;SDS011;11841;49.368;20.962;2023-04-24T12:07:01;9.15;;;4.85;;
23338;SDS011;11841;49.368;20.962;2023-04-24T12:09:47;9.63;;;5.03;;
23338;SDS011;11841;49.368;20.962;2023-04-24T12:12:36;7.40;;;4.63;;
23338;SDS011;11841;49.368;20.962;2023-04-24T12:15:22;8.35;;;4.93;;
23338;SDS011;11841;49.368;20.962;2023-04-24T12:18:08;7.53;;;4.90;;
23338;SDS011;11841;49.368;20.962;2023-04-24T12:24:06;6.35;;;4.68;;
23338;SDS011;11841;49.368;20.962;2023-04-24T12:26:51;6.60;;;4.35;;
23338;SDS011;11841;49.368;20.962;2023-04-24T12:29:50;11.30;;;4.88;;
23338;SDS011;11841;49.368;20.962;2023-04-24T12:32:45;6.47;;;5.22;;
23338;SDS011;11841;49.368;20.962;2023-04-24T12:35:33;8.20;;;4.70;;
23338;SDS011;11841;49.368;20.962;2023-04-24T12:38:21;9.23;;;5.18;;
23338;SDS011;11841;49.368;20.962;2023-04-24T12:41:09;10.55;;;5.63;;
23338;SDS011;11841;49.368;20.962;2023-04-24T12:43:56;9.45;;;5.05;;
23338;SDS011;11841;49.368;20.962;2023-04-24T12:46:41;8.65;;;4.88;;
23338;SDS011;11841;49.368;20.962;2023-04-24T12:49:27;15.30;;;6.32;;
23338;SDS011;11841;49.368;20.962;2023-04-24T12:52:13;9.70;;;5.22;;
23338;SDS011;11841;49.368;20.962;2023-04-24T12:54:59;12.40;;;4.80;;
23338;SDS011;11841;49.368;20.962;2023-04-24T12:57:45;10.63;;;4.63;;
23338;SDS011;11841;49.368;20.962;2023-04-24T13:00:30;7.40;;;4.55;;
23338;SDS011;11841;49.368;20.962;2023-04-24T13:03:15;11.50;;;4.88;;
23338;SDS011;11841;49.368;20.962;2023-04-24T13:06:01;9.57;;;5.35;;
23338;SDS011;11841;49.368;20.962;2023-04-24T13:08:46;10.23;;;5.47;;
23338;SDS011;11841;49.368;20.962;2023-04-24T13:11:33;13.50;;;5.60;;
23338;SDS011;11841;49.368;20.962;2023-04-24T13:14:18;9.45;;;5.38;;
23338;SDS011;11841;49.368;20.962;2023-04-24T13:17:04;7.63;;;4.85;;
23338;SDS011;11841;49.368;20.962;2023-04-24T13:19:50;7.82;;;4.68;;
23338;SDS011;11841;49.368;20.962;2023-04-24T13:22:36;12.38;;;5.40;;
23338;SDS011;11841;49.368;20.962;2023-04-24T13:25:22;8.15;;;5.10;;
23338;SDS011;11841;49.368;20.962;2023-04-24T13:28:09;8.68;;;5.53;;
23338;SDS011;11841;49.368;20.962;2023-04-24T13:30:55;8.35;;;5.70;;
23338;SDS011;11841;49.368;20.962;2023-04-24T13:33:40;13.88;;;5.68;;
23338;SDS011;11841;49.368;20.962;2023-04-24T13:36:26;13.32;;;5.88;;
23338;SDS011;11841;49.368;20.962;2023-04-24T13:39:11;11.73;;;5.50;;
23338;SDS011;11841;49.368;20.962;2023-04-24T13:41:57;13.73;;;6.40;;
23338;SDS011;11841;49.368;20.962;2023-04-24T13:44:43;10.88;;;5.85;;
23338;SDS011;11841;49.368;20.962;2023-04-24T13:47:28;11.38;;;5.93;;
23338;SDS011;11841;49.368;20.962;2023-04-24T13:50:13;6.35;;;5.05;;
23338;SDS011;11841;49.368;20.962;2023-04-24T13:52:59;6.97;;;5.45;;
23338;SDS011;11841;49.368;20.962;2023-04-24T13:55:47;10.23;;;6.10;;
23338;SDS011;11841;49.368;20.962;2023-04-24T13:58:32;8.88;;;5.07;;
23338;SDS011;11841;49.368;20.962;2023-04-24T14:01:17;11.60;;;5.53;;
23338;SDS011;11841;49.368;20.962;2023-04-24T14:04:03;11.05;;;5.85;;
23338;SDS011;11841;49.368;20.962;2023-04-24T14:06:49;10.27;;;5.55;;
23338;SDS011;11841;49.368;20.962;2023-04-24T14:09:34;7.57;;;5.57;;
23338;SDS011;11841;49.368;20.962;2023-04-24T14:12:19;12.45;;;6.35;;
23338;SDS011;11841;49.368;20.962;2023-04-24T14:15:05;8.15;;;5.40;;
23338;SDS011;11841;49.368;20.962;2023-04-24T14:17:51;7.68;;;5.65;;
23338;SDS011;11841;49.368;20.962;2023-04-24T14:20:36;7.97;;;5.57;;
23338;SDS011;11841;49.368;20.962;2023-04-24T14:23:22;8.73;;;5.72;;
23338;SDS011;11841;49.368;20.962;2023-04-24T14:26:07;23.80;;;7.03;;
23338;SDS011;11841;49.368;20.962;2023-04-24T14:28:52;12.57;;;5.78;;
23338;SDS011;11841;49.368;20.962;2023-04-24T14:31:55;8.05;;;6.38;;
23338;SDS011;11841;49.368;20.962;2023-04-24T14:34:40;11.90;;;5.60;;
23338;SDS011;11841;49.368;20.962;2023-04-24T14:37:26;11.07;;;7.43;;
23338;SDS011;11841;49.368;20.962;2023-04-24T14:40:11;14.38;;;6.88;;
23338;SDS011;11841;49.368;20.962;2023-04-24T14:43:17;17.13;;;7.68;;
23338;SDS011;11841;49.368;20.962;2023-04-24T14:46:02;14.40;;;7.25;;
23338;SDS011;11841;49.368;20.962;2023-04-24T14:48:49;18.20;;;8.13;;
23338;SDS011;11841;49.368;20.962;2023-04-24T14:51:37;31.75;;;12.95;;
23338;SDS011;11841;49.368;20.962;2023-04-24T14:54:23;32.25;;;11.20;;
23338;SDS011;11841;49.368;20.962;2023-04-24T14:57:08;10.20;;;7.57;;
23338;SDS011;11841;49.368;20.962;2023-04-24T14:59:53;14.15;;;7.88;;
23338;SDS011;11841;49.368;20.962;2023-04-24T15:02:38;14.30;;;8.45;;
23338;SDS011;11841;49.368;20.962;2023-04-24T15:05:27;14.70;;;8.32;;
23338;SDS011;11841;49.368;20.962;2023-04-24T15:08:12;14.02;;;8.15;;
23338;SDS011;11841;49.368;20.962;2023-04-24T15:10:58;11.30;;;7.18;;
23338;SDS011;11841;49.368;20.962;2023-04-24T15:13:43;10.95;;;7.18;;
23338;SDS011;11841;49.368;20.962;2023-04-24T15:16:32;10.77;;;7.40;;
23338;SDS011;11841;49.368;20.962;2023-04-24T15:19:17;12.93;;;6.70;;
23338;SDS011;11841;49.368;20.962;2023-04-24T15:22:02;10.25;;;7.82;;
23338;SDS011;11841;49.368;20.962;2023-04-24T15:24:48;12.52;;;7.30;;
23338;SDS011;11841;49.368;20.962;2023-04-24T15:27:39;10.23;;;7.93;;
23338;SDS011;11841;49.368;20.962;2023-04-24T15:30:30;11.02;;;8.88;;
23338;SDS011;11841;49.368;20.962;2023-04-24T15:33:16;32.03;;;18.80;;
23338;SDS011;11841;49.368;20.962;2023-04-24T15:36:01;68.35;;;40.72;;
23338;SDS011;11841;49.368;20.962;2023-04-24T15:38:46;29.17;;;17.88;;
23338;SDS011;11841;49.368;20.962;2023-04-24T15:41:32;22.50;;;15.43;;
23338;SDS011;11841;49.368;20.962;2023-04-24T15:44:17;23.90;;;15.55;;
23338;SDS011;11841;49.368;20.962;2023-04-24T15:47:03;26.30;;;17.67;;
23338;SDS011;11841;49.368;20.962;2023-04-24T15:49:48;28.42;;;15.07;;
23338;SDS011;11841;49.368;20.962;2023-04-24T15:52:34;21.02;;;8.57;;
23338;SDS011;11841;49.368;20.962;2023-04-24T15:55:19;15.40;;;8.35;;
23338;SDS011;11841;49.368;20.962;2023-04-24T15:58:05;12.35;;;9.23;;
23338;SDS011;11841;49.368;20.962;2023-04-24T16:00:50;23.95;;;14.23;;
23338;SDS011;11841;49.368;20.962;2023-04-24T16:03:35;24.00;;;16.83;;
23338;SDS011;11841;49.368;20.962;2023-04-24T16:06:21;25.20;;;13.60;;
23338;SDS011;11841;49.368;20.962;2023-04-24T16:09:06;18.75;;;10.70;;
23338;SDS011;11841;49.368;20.962;2023-04-24T16:11:52;24.50;;;15.18;;
23338;SDS011;11841;49.368;20.962;2023-04-24T16:14:37;18.73;;;12.60;;
23338;SDS011;11841;49.368;20.962;2023-04-24T16:17:23;15.68;;;8.82;;
23338;SDS011;11841;49.368;20.962;2023-04-24T16:20:09;15.27;;;9.30;;
23338;SDS011;11841;49.368;20.962;2023-04-24T16:22:54;12.85;;;7.72;;
23338;SDS011;11841;49.368;20.962;2023-04-24T16:25:39;17.73;;;10.60;;
23338;SDS011;11841;49.368;20.962;2023-04-24T16:28:24;32.67;;;16.38;;
23338;SDS011;11841;49.368;20.962;2023-04-24T16:31:11;12.75;;;7.38;;